createdAt,value
2018-12-20T00:00:29.569Z,9.30
2018-12-20T00:01:29.529Z,9.34
2018-12-20T00:02:29.513Z,9.26
2018-12-20T00:03:29.503Z,9.30
2018-12-20T00:04:29.612Z,9.26
2018-12-20T00:05:29.481Z,9.24
2018-12-20T00:06:29.474Z,9.20
2018-12-20T00:07:29.543Z,9.22
2018-12-20T00:08:29.453Z,9.20
2018-12-20T00:09:29.456Z,9.31
2018-12-20T00:10:29.507Z,9.13
2018-12-20T00:11:29.437Z,9.30
2018-12-20T00:12:29.408Z,9.31
2018-12-20T00:13:29.395Z,9.27
2018-12-20T00:14:30.140Z,9.23
2018-12-20T00:15:29.458Z,9.19
2018-12-20T00:16:29.422Z,9.22
2018-12-20T00:17:29.375Z,9.27
2018-12-20T00:18:29.352Z,9.31
2018-12-20T00:19:29.487Z,9.22
2018-12-20T00:20:29.414Z,9.32
2018-12-20T00:21:29.318Z,9.31
2018-12-20T00:22:29.435Z,9.31
2018-12-20T00:23:29.287Z,9.40
2018-12-20T00:24:29.382Z,9.41
2018-12-20T00:25:29.267Z,9.41
2018-12-20T00:26:29.262Z,9.48
2018-12-20T00:27:29.353Z,9.41
2018-12-20T00:28:29.238Z,9.42
2018-12-20T00:29:29.228Z,9.37
2018-12-20T00:30:29.235Z,9.41
2018-12-20T00:31:29.304Z,9.42
2018-12-20T00:32:29.206Z,9.45
2018-12-20T00:33:29.212Z,9.40
2018-12-20T00:34:29.202Z,9.40
2018-12-20T00:35:29.174Z,9.45
2018-12-20T00:36:29.333Z,9.37
2018-12-20T00:37:29.195Z,9.45
2018-12-20T00:38:29.163Z,9.42
2018-12-20T00:39:29.232Z,9.40
2018-12-20T00:40:29.111Z,9.40
2018-12-20T00:41:29.194Z,9.40
2018-12-20T00:42:29.086Z,9.38
2018-12-20T00:43:29.114Z,9.38
2018-12-20T00:44:29.187Z,9.38
2018-12-20T00:45:29.063Z,9.38
2018-12-20T00:46:29.238Z,9.37
2018-12-20T00:47:29.040Z,9.27
2018-12-20T00:48:29.083Z,9.41
2018-12-20T00:49:29.098Z,9.35
2018-12-20T00:50:29.007Z,9.38
2018-12-20T00:51:29.074Z,9.40
2018-12-20T00:52:29.128Z,9.40
2018-12-20T00:53:28.981Z,9.37
2018-12-20T00:54:28.998Z,9.44
2018-12-20T00:55:28.965Z,9.42
2018-12-20T00:56:28.943Z,9.42
2018-12-20T00:57:29.096Z,9.38
2018-12-20T00:58:28.927Z,9.40
2018-12-20T00:59:29.142Z,9.40
2018-12-20T01:00:28.902Z,9.48
2018-12-20T01:01:29.013Z,9.42
2018-12-20T01:02:28.890Z,9.49
2018-12-20T01:03:28.907Z,9.45
2018-12-20T01:04:28.861Z,9.55
2018-12-20T01:05:28.986Z,9.49
2018-12-20T01:06:28.968Z,9.44
2018-12-20T01:07:28.842Z,9.50
2018-12-20T01:08:28.844Z,9.53
2018-12-20T01:09:28.949Z,9.52
2018-12-20T01:10:28.900Z,9.53
2018-12-20T01:11:28.937Z,9.45
2018-12-20T01:12:28.780Z,9.50
2018-12-20T01:13:28.767Z,9.50
2018-12-20T01:14:28.836Z,9.59
2018-12-20T01:15:28.844Z,9.40
2018-12-20T01:16:28.900Z,9.49
2018-12-20T01:17:28.751Z,9.50
2018-12-20T01:18:28.726Z,9.48
2018-12-20T01:19:28.702Z,9.50
2018-12-20T01:20:28.703Z,9.53
2018-12-20T01:21:28.678Z,9.52
2018-12-20T01:22:28.786Z,9.56
2018-12-20T01:23:28.660Z,9.50
2018-12-20T01:24:28.922Z,9.50
2018-12-20T01:25:28.725Z,9.52
2018-12-20T01:26:28.626Z,9.49
2018-12-20T01:27:28.762Z,9.52
2018-12-20T01:28:28.690Z,9.49
2018-12-20T01:29:28.594Z,9.53
2018-12-20T01:30:28.589Z,9.50
2018-12-20T01:31:28.577Z,9.53
2018-12-20T01:32:28.648Z,9.50
2018-12-20T01:33:28.607Z,9.45
2018-12-20T01:34:28.559Z,9.49
2018-12-20T01:35:28.531Z,9.53
2018-12-20T01:36:28.567Z,9.55
2018-12-20T01:37:28.535Z,9.50
2018-12-20T01:38:28.603Z,9.44
2018-12-20T01:39:28.725Z,9.41
2018-12-20T01:40:28.479Z,9.45
2018-12-20T01:41:28.643Z,9.48
2018-12-20T01:42:28.513Z,9.42
2018-12-20T01:43:28.452Z,9.40
2018-12-20T01:44:28.525Z,9.40
2018-12-20T01:45:28.431Z,9.37
2018-12-20T01:46:28.418Z,9.35
2018-12-20T01:47:28.407Z,9.35
2018-12-20T01:48:28.569Z,9.35
2018-12-20T01:49:28.390Z,9.27
2018-12-20T01:50:28.410Z,9.31
2018-12-20T01:51:28.373Z,9.30
2018-12-20T01:52:28.409Z,9.27
2018-12-20T01:53:28.357Z,9.32
2018-12-20T01:54:28.362Z,9.30
2018-12-20T01:55:28.328Z,9.26
2018-12-20T01:56:28.316Z,9.31
2018-12-20T01:57:28.308Z,9.26
2018-12-20T01:58:28.291Z,9.19
2018-12-20T01:59:28.368Z,9.27
2018-12-20T02:00:28.274Z,9.23
2018-12-20T02:01:28.451Z,9.15
2018-12-20T02:02:28.433Z,9.19
2018-12-20T02:03:28.241Z,9.12
2018-12-20T02:04:28.392Z,9.12
2018-12-20T02:05:28.233Z,9.15
2018-12-20T02:06:28.206Z,9.17
2018-12-20T02:07:28.223Z,9.15
2018-12-20T02:08:28.190Z,9.17
2018-12-20T02:09:28.379Z,9.15
2018-12-20T02:10:28.166Z,9.13
2018-12-20T02:11:28.152Z,9.19
2018-12-20T02:12:28.168Z,9.15
2018-12-20T02:13:28.278Z,9.15
2018-12-20T02:14:28.149Z,9.17
2018-12-20T02:15:28.113Z,9.17
2018-12-20T02:16:28.341Z,9.19
2018-12-20T02:17:28.230Z,9.15
2018-12-20T02:18:28.252Z,9.17
2018-12-20T02:19:28.066Z,9.20
2018-12-20T02:20:28.114Z,9.27
2018-12-20T02:21:28.314Z,9.26
2018-12-20T02:22:28.191Z,9.34
2018-12-20T02:23:28.260Z,9.27
2018-12-20T02:24:28.179Z,9.27
2018-12-20T02:25:28.150Z,9.32
2018-12-20T02:26:28.265Z,9.23
2018-12-20T02:27:28.229Z,9.32
2018-12-20T02:28:27.974Z,9.26
2018-12-20T02:29:28.071Z,9.26
2018-12-20T02:30:28.121Z,9.26
2018-12-20T02:31:28.061Z,9.32
2018-12-20T02:32:28.266Z,9.27
2018-12-20T02:33:27.996Z,9.30
2018-12-20T02:34:28.037Z,9.32
2018-12-20T02:35:27.971Z,9.31
2018-12-20T02:36:27.943Z,9.26
2018-12-20T02:37:27.884Z,9.30
2018-12-20T02:38:27.865Z,9.27
2018-12-20T02:39:27.894Z,9.31
2018-12-20T02:40:27.848Z,9.31
2018-12-20T02:41:27.837Z,9.30
2018-12-20T02:42:27.822Z,9.27
2018-12-20T02:43:28.037Z,9.24
2018-12-20T02:44:27.803Z,9.30
2018-12-20T02:45:27.809Z,9.26
2018-12-20T02:46:27.914Z,9.32
2018-12-20T02:47:27.799Z,9.31
2018-12-20T02:48:27.766Z,9.34
2018-12-20T02:49:27.906Z,9.31
2018-12-20T02:50:27.740Z,9.38
2018-12-20T02:51:27.889Z,9.30
2018-12-20T02:52:27.818Z,9.32
2018-12-20T02:53:27.707Z,9.41
2018-12-20T02:54:27.887Z,9.37
2018-12-20T02:55:27.942Z,9.35
2018-12-20T02:56:27.865Z,9.44
2018-12-20T02:57:27.896Z,9.40
2018-12-20T02:58:27.658Z,9.45
2018-12-20T02:59:27.774Z,9.42
2018-12-20T03:00:27.722Z,9.42
2018-12-20T03:01:27.627Z,9.42
2018-12-20T03:02:27.638Z,9.45
2018-12-20T03:03:27.836Z,9.52
2018-12-20T03:04:27.608Z,9.48
2018-12-20T03:05:27.579Z,9.48
2018-12-20T03:06:27.574Z,9.41
2018-12-20T03:07:27.562Z,9.48
2018-12-20T03:08:27.734Z,9.41
2018-12-20T03:09:27.543Z,9.45
2018-12-20T03:10:27.727Z,9.38
2018-12-20T03:11:27.693Z,9.40
2018-12-20T03:12:27.540Z,9.42
2018-12-20T03:13:27.802Z,9.42
2018-12-20T03:14:27.618Z,9.42
2018-12-20T03:15:27.474Z,9.44
2018-12-20T03:16:27.621Z,9.45
2018-12-20T03:17:27.453Z,9.45
2018-12-20T03:18:27.583Z,9.52
2018-12-20T03:19:27.639Z,9.49
2018-12-20T03:20:27.436Z,9.41
2018-12-20T03:21:27.446Z,9.44
2018-12-20T03:22:27.423Z,9.50
2018-12-20T03:23:27.425Z,9.50
2018-12-20T03:24:27.379Z,9.45
2018-12-20T03:25:27.391Z,9.48
2018-12-20T03:26:27.481Z,9.48
2018-12-20T03:27:27.352Z,9.45
2018-12-20T03:28:27.373Z,9.53
2018-12-20T03:29:27.335Z,9.53
2018-12-20T03:30:27.698Z,9.53
2018-12-20T03:31:27.393Z,9.48
2018-12-20T03:32:27.302Z,9.52
2018-12-20T03:33:27.465Z,9.50
2018-12-20T03:34:27.494Z,9.53
2018-12-20T03:35:27.265Z,9.55
2018-12-20T03:36:27.260Z,9.49
2018-12-20T03:37:27.412Z,9.48
2018-12-20T03:38:27.234Z,9.55
2018-12-20T03:39:27.222Z,9.53
2018-12-20T03:40:27.214Z,9.49
2018-12-20T03:41:27.202Z,9.45
2018-12-20T03:42:27.333Z,9.62
2018-12-20T03:43:27.446Z,9.53
2018-12-20T03:44:27.387Z,9.56
2018-12-20T03:45:29.078Z,9.56
2018-12-20T03:46:27.402Z,9.59
2018-12-20T03:47:27.144Z,9.63
2018-12-20T03:48:27.133Z,9.63
2018-12-20T03:49:27.126Z,9.63
2018-12-20T03:50:27.185Z,9.60
2018-12-20T03:51:27.136Z,9.67
2018-12-20T03:52:27.091Z,9.56
2018-12-20T03:53:27.218Z,9.68
2018-12-20T03:54:27.183Z,9.63
2018-12-20T03:55:27.059Z,9.62
2018-12-20T03:56:27.050Z,9.62
2018-12-20T03:57:27.338Z,9.68
2018-12-20T03:58:27.061Z,9.68
2018-12-20T03:59:27.013Z,9.68
2018-12-20T04:00:27.008Z,9.67
2018-12-20T04:01:27.147Z,9.68
2018-12-20T04:02:26.983Z,9.62
2018-12-20T04:03:26.983Z,9.63
2018-12-20T04:04:27.067Z,9.67
2018-12-20T04:05:27.000Z,9.65
2018-12-20T04:06:27.032Z,9.63
2018-12-20T04:07:27.001Z,9.62
2018-12-20T04:08:26.960Z,9.70
2018-12-20T04:09:27.018Z,9.65
2018-12-20T04:10:27.274Z,9.67
2018-12-20T04:11:27.094Z,9.67
2018-12-20T04:12:27.134Z,9.65
2018-12-20T04:13:26.869Z,9.62
2018-12-20T04:14:27.181Z,9.65
2018-12-20T04:15:26.852Z,9.68
2018-12-20T04:16:26.942Z,9.67
2018-12-20T04:17:26.827Z,9.65
2018-12-20T04:18:26.822Z,9.67
2018-12-20T04:19:27.031Z,9.67
2018-12-20T04:20:26.800Z,9.59
2018-12-20T04:21:26.988Z,9.62
2018-12-20T04:22:26.775Z,9.65
2018-12-20T04:23:26.764Z,9.65
2018-12-20T04:24:26.960Z,9.63
2018-12-20T04:25:26.838Z,9.60
2018-12-20T04:26:26.739Z,9.65
2018-12-20T04:27:26.782Z,9.65
2018-12-20T04:28:26.718Z,9.65
2018-12-20T04:29:26.943Z,9.65
2018-12-20T04:30:26.718Z,9.68
2018-12-20T04:31:26.793Z,9.62
2018-12-20T04:32:26.697Z,9.67
2018-12-20T04:33:26.667Z,9.62
2018-12-20T04:34:26.771Z,9.68
2018-12-20T04:35:26.865Z,9.68
2018-12-20T04:36:26.850Z,9.71
2018-12-20T04:37:26.643Z,9.68
2018-12-20T04:38:26.687Z,9.70
2018-12-20T04:39:26.719Z,9.63
2018-12-20T04:40:26.597Z,9.78
2018-12-20T04:41:26.590Z,9.68
2018-12-20T04:42:26.813Z,9.70
2018-12-20T04:43:26.615Z,9.70
2018-12-20T04:44:26.748Z,9.68
2018-12-20T04:45:26.537Z,9.63
2018-12-20T04:46:26.532Z,9.63
2018-12-20T04:47:26.527Z,9.58
2018-12-20T04:48:26.677Z,9.59
2018-12-20T04:49:26.635Z,9.49
2018-12-20T04:50:26.720Z,9.52
2018-12-20T04:51:26.489Z,9.52
2018-12-20T04:52:26.469Z,9.49
2018-12-20T04:53:26.622Z,9.40
2018-12-20T04:54:26.661Z,9.40
2018-12-20T04:55:26.433Z,9.32
2018-12-20T04:56:26.423Z,9.16
2018-12-20T04:57:26.776Z,9.12
2018-12-20T04:58:26.581Z,9.15
2018-12-20T04:59:26.424Z,9.08
2018-12-20T05:00:26.386Z,9.06
2018-12-20T05:01:26.501Z,8.97
2018-12-20T05:02:26.400Z,9.00
2018-12-20T05:03:26.350Z,8.98
2018-12-20T05:04:26.341Z,8.98
2018-12-20T05:05:26.652Z,8.93
2018-12-20T05:06:26.316Z,8.94
2018-12-20T05:07:26.452Z,9.00
2018-12-20T05:08:26.319Z,8.93
2018-12-20T05:09:26.284Z,8.83
2018-12-20T05:10:26.277Z,8.93
2018-12-20T05:11:26.464Z,8.86
2018-12-20T05:12:26.399Z,8.88
2018-12-20T05:13:26.440Z,8.88
2018-12-20T05:14:26.441Z,8.89
2018-12-20T05:15:26.373Z,8.89
2018-12-20T05:16:26.402Z,8.89
2018-12-20T05:17:26.196Z,8.89
2018-12-20T05:18:26.219Z,8.89
2018-12-20T05:19:26.212Z,8.88
2018-12-20T05:20:26.216Z,8.93
2018-12-20T05:21:26.153Z,8.89
2018-12-20T05:22:26.307Z,8.86
2018-12-20T05:23:26.308Z,8.89
2018-12-20T05:24:26.159Z,8.88
2018-12-20T05:25:26.113Z,8.83
2018-12-20T05:26:26.179Z,8.83
2018-12-20T05:27:26.087Z,8.88
2018-12-20T05:28:26.200Z,8.85
2018-12-20T05:29:26.310Z,8.85
2018-12-20T05:30:26.061Z,8.91
2018-12-20T05:31:26.048Z,8.89
2018-12-20T05:32:26.036Z,8.93
2018-12-20T05:33:26.245Z,8.89
2018-12-20T05:34:26.073Z,8.86
2018-12-20T05:35:26.044Z,8.93
2018-12-20T05:36:25.994Z,8.88
2018-12-20T05:37:26.049Z,8.91
2018-12-20T05:38:26.090Z,8.89
2018-12-20T05:39:26.038Z,8.88
2018-12-20T05:40:26.015Z,8.94
2018-12-20T05:41:26.127Z,8.83
2018-12-20T05:42:26.008Z,8.88
2018-12-20T05:43:25.930Z,8.86
2018-12-20T05:44:25.923Z,8.89
2018-12-20T05:45:26.046Z,8.89
2018-12-20T05:46:25.901Z,8.88
2018-12-20T05:47:26.045Z,8.91
2018-12-20T05:48:25.868Z,8.85
2018-12-20T05:49:25.870Z,8.88
2018-12-20T05:50:25.843Z,8.86
2018-12-20T05:51:25.862Z,8.86
2018-12-20T05:52:25.955Z,8.78
2018-12-20T05:53:25.858Z,8.79
2018-12-20T05:54:25.800Z,8.78
2018-12-20T05:55:25.987Z,8.75
2018-12-20T05:56:25.772Z,8.85
2018-12-20T05:57:25.761Z,8.79
2018-12-20T05:58:25.788Z,8.82
2018-12-20T05:59:25.856Z,8.83
2018-12-20T06:00:25.724Z,8.80
2018-12-20T06:01:25.899Z,8.73
2018-12-20T06:02:25.855Z,8.78
2018-12-20T06:03:25.694Z,8.73
2018-12-20T06:04:25.692Z,8.80
2018-12-20T06:05:25.899Z,8.79
2018-12-20T06:06:25.658Z,8.80
2018-12-20T06:07:25.712Z,8.78
2018-12-20T06:08:25.641Z,8.78
2018-12-20T06:09:25.642Z,8.76
2018-12-20T06:10:25.910Z,8.78
2018-12-20T06:11:25.850Z,8.78
2018-12-20T06:12:25.785Z,8.75
2018-12-20T06:13:25.613Z,8.73
2018-12-20T06:14:25.574Z,8.73
2018-12-20T06:15:25.574Z,8.80
2018-12-20T06:16:25.552Z,8.75
2018-12-20T06:17:25.622Z,8.82
2018-12-20T06:18:25.705Z,8.76
2018-12-20T06:19:25.514Z,8.75
2018-12-20T06:20:25.633Z,8.76
2018-12-20T06:21:25.636Z,8.79
2018-12-20T06:22:25.689Z,8.75
2018-12-20T06:23:25.516Z,8.78
2018-12-20T06:24:25.481Z,8.78
2018-12-20T06:25:25.448Z,8.73
2018-12-20T06:26:25.442Z,8.76
2018-12-20T06:27:25.428Z,8.76
2018-12-20T06:28:25.419Z,8.76
2018-12-20T06:29:25.408Z,8.73
2018-12-20T06:30:25.392Z,8.82
2018-12-20T06:31:25.380Z,8.78
2018-12-20T06:32:25.368Z,8.78
2018-12-20T06:33:25.362Z,8.78
2018-12-20T06:34:25.353Z,8.75
2018-12-20T06:35:25.341Z,8.76
2018-12-20T06:36:25.330Z,8.75
2018-12-20T06:37:25.319Z,8.80
2018-12-20T06:38:25.302Z,8.75
2018-12-20T06:39:25.292Z,8.75
2018-12-20T06:40:25.285Z,8.76
2018-12-20T06:41:25.275Z,8.73
2018-12-20T06:42:25.259Z,8.76
2018-12-20T06:43:25.248Z,8.76
2018-12-20T06:44:25.236Z,8.79
2018-12-20T06:45:25.225Z,8.76
2018-12-20T06:46:25.218Z,8.73
2018-12-20T06:47:25.207Z,8.71
2018-12-20T06:48:25.197Z,8.68
2018-12-20T06:49:25.185Z,8.70
2018-12-20T06:50:25.169Z,8.75
2018-12-20T06:51:25.159Z,8.70
2018-12-20T06:52:25.146Z,8.71
2018-12-20T06:53:25.137Z,8.75
2018-12-20T06:54:25.129Z,8.70
2018-12-20T06:55:25.117Z,8.80
2018-12-20T06:56:25.102Z,8.73
2018-12-20T06:57:25.094Z,8.75
2018-12-20T06:58:25.085Z,8.79
2018-12-20T06:59:25.074Z,8.75
2018-12-20T07:00:25.063Z,8.76
2018-12-20T07:01:25.056Z,8.76
2018-12-20T07:02:25.037Z,8.78
2018-12-20T07:03:25.026Z,8.78
2018-12-20T07:04:25.015Z,8.75
2018-12-20T07:05:25.003Z,8.79
2018-12-20T07:06:24.997Z,8.82
2018-12-20T07:07:24.986Z,8.78
2018-12-20T07:08:24.974Z,8.76
2018-12-20T07:09:24.963Z,8.85
2018-12-20T07:10:24.960Z,8.86
2018-12-20T07:11:25.152Z,8.88
2018-12-20T07:12:24.932Z,8.91
2018-12-20T07:13:24.919Z,8.93
2018-12-20T07:14:24.924Z,8.88
2018-12-20T07:15:24.893Z,8.86
2018-12-20T07:16:29.338Z,8.85
2018-12-20T07:17:24.871Z,8.88
2018-12-20T07:18:24.865Z,8.91
2018-12-20T07:19:24.852Z,9.01
2018-12-20T07:20:24.843Z,8.86
2018-12-20T07:21:24.832Z,9.01
2018-12-20T07:22:24.816Z,8.98
2018-12-20T07:23:24.804Z,9.03
2018-12-20T07:24:24.793Z,9.12
2018-12-20T07:25:24.783Z,9.12
2018-12-20T07:26:24.777Z,9.04
2018-12-20T07:27:24.765Z,9.08
2018-12-20T07:28:24.752Z,9.12
2018-12-20T07:29:24.743Z,9.12
2018-12-20T07:30:24.733Z,9.15
2018-12-20T07:31:24.722Z,9.08
2018-12-20T07:32:25.353Z,9.13
2018-12-20T07:33:24.700Z,9.08
2018-12-20T07:34:24.686Z,9.03
2018-12-20T07:35:24.674Z,9.16
2018-12-20T07:36:24.663Z,9.17
2018-12-20T07:37:24.654Z,9.15
2018-12-20T07:38:24.648Z,9.17
2018-12-20T07:39:24.636Z,9.15
2018-12-20T07:40:24.628Z,9.17
2018-12-20T07:41:24.614Z,9.19
2018-12-20T07:42:24.599Z,9.15
2018-12-20T07:43:24.588Z,9.16
2018-12-20T07:44:24.581Z,9.17
2018-12-20T07:45:24.571Z,9.19
2018-12-20T07:46:24.556Z,9.16
2018-12-20T07:47:24.545Z,9.16
2018-12-20T07:48:31.850Z,9.22
2018-12-20T07:49:24.524Z,9.15
2018-12-20T07:50:24.519Z,9.13
2018-12-20T07:51:25.553Z,9.13
2018-12-20T07:52:24.504Z,9.10
2018-12-20T07:53:24.486Z,9.13
2018-12-20T07:54:24.472Z,9.15
2018-12-20T07:55:24.459Z,9.19
2018-12-20T07:56:24.450Z,9.17
2018-12-20T07:57:24.985Z,9.06
2018-12-20T07:58:24.433Z,9.10
2018-12-20T07:59:24.421Z,9.10
2018-12-20T08:00:24.406Z,9.19
2018-12-20T08:01:24.395Z,9.03
2018-12-20T08:02:24.390Z,9.08
2018-12-20T08:03:24.378Z,9.08
2018-12-20T08:04:24.368Z,9.06
2018-12-20T08:05:24.357Z,9.12
2018-12-20T08:06:24.342Z,9.15
2018-12-20T08:07:24.330Z,9.10
2018-12-20T08:08:24.319Z,9.08
2018-12-20T08:09:24.309Z,9.06
2018-12-20T08:10:24.304Z,9.00
2018-12-20T08:11:24.293Z,9.08
2018-12-20T08:12:24.281Z,8.98
2018-12-20T08:13:24.270Z,9.10
2018-12-20T08:14:24.256Z,8.98
2018-12-20T08:15:24.245Z,9.03
2018-12-20T08:16:24.239Z,8.96
2018-12-20T08:17:24.228Z,9.03
2018-12-20T08:18:24.212Z,9.08
2018-12-20T08:19:24.201Z,8.98
2018-12-20T08:20:24.190Z,8.98
2018-12-20T08:21:24.181Z,9.06
2018-12-20T08:22:24.176Z,9.06
2018-12-20T08:23:24.164Z,9.13
2018-12-20T08:24:24.153Z,9.03
2018-12-20T08:25:24.144Z,9.13
2018-12-20T08:26:24.127Z,9.15
2018-12-20T08:27:24.117Z,9.15
2018-12-20T08:28:24.106Z,9.08
2018-12-20T08:29:24.095Z,9.13
2018-12-20T08:30:24.089Z,9.15
2018-12-20T08:31:24.079Z,9.17
2018-12-20T08:32:24.063Z,9.15
2018-12-20T08:33:24.053Z,9.19
2018-12-20T08:34:24.046Z,9.17
2018-12-20T08:35:24.035Z,9.16
2018-12-20T08:36:24.027Z,9.20
2018-12-20T08:37:24.018Z,9.24
2018-12-20T08:38:24.001Z,9.26
2018-12-20T08:39:23.991Z,9.27
2018-12-20T08:40:23.978Z,9.30
2018-12-20T08:41:23.969Z,9.31
2018-12-20T08:42:23.963Z,9.38
2018-12-20T08:43:23.952Z,9.35
2018-12-20T08:44:23.946Z,9.38
2018-12-20T08:45:23.933Z,9.37
2018-12-20T08:46:23.920Z,9.40
2018-12-20T08:47:24.008Z,9.48
2018-12-20T08:48:23.901Z,9.48
2018-12-20T08:49:23.894Z,9.42
2018-12-20T08:50:23.876Z,9.48
2018-12-20T08:51:23.865Z,9.44
2018-12-20T08:52:23.855Z,9.40
2018-12-20T08:53:23.847Z,9.42
2018-12-20T08:54:23.840Z,9.40
2018-12-20T08:55:23.834Z,9.53
2018-12-20T08:56:23.817Z,9.52
2018-12-20T08:57:23.808Z,9.48
2018-12-20T08:58:23.793Z,9.45
2018-12-20T08:59:23.783Z,9.53
2018-12-20T09:00:23.772Z,9.48
2018-12-20T09:01:23.763Z,9.50
2018-12-20T09:02:23.759Z,9.42
2018-12-20T09:03:23.747Z,9.52
2018-12-20T09:04:23.731Z,9.53
2018-12-20T09:05:23.722Z,9.49
2018-12-20T09:06:23.717Z,9.49
2018-12-20T09:07:23.705Z,9.52
2018-12-20T09:08:25.381Z,9.49
2018-12-20T09:09:23.685Z,9.49
2018-12-20T09:10:23.671Z,9.52
2018-12-20T09:11:23.660Z,9.59
2018-12-20T09:12:23.649Z,9.48
2018-12-20T09:13:23.639Z,9.60
2018-12-20T09:14:23.635Z,9.60
2018-12-20T09:15:23.628Z,9.59
2018-12-20T09:16:23.615Z,9.62
2018-12-20T09:17:23.603Z,9.59
2018-12-20T09:18:23.588Z,9.63
2018-12-20T09:19:23.671Z,9.65
2018-12-20T09:20:23.576Z,9.65
2018-12-20T09:21:23.562Z,9.65
2018-12-20T09:22:23.550Z,9.70
2018-12-20T09:23:23.538Z,9.78
2018-12-20T09:24:23.527Z,9.73
2018-12-20T09:25:23.517Z,9.70
2018-12-20T09:26:23.511Z,9.85
2018-12-20T09:27:23.500Z,9.92
2018-12-20T09:28:23.491Z,9.91
2018-12-20T09:29:23.481Z,9.88
2018-12-20T09:30:30.445Z,9.95
2018-12-20T09:31:23.457Z,9.95
2018-12-20T09:32:23.449Z,9.99
2018-12-20T09:33:23.436Z,9.91
2018-12-20T09:34:23.433Z,9.95
2018-12-20T09:35:23.420Z,9.98
2018-12-20T09:36:23.407Z,10.01
2018-12-20T09:37:23.399Z,9.95
2018-12-20T09:38:23.393Z,9.93
2018-12-20T09:39:23.381Z,9.95
2018-12-20T09:40:23.371Z,9.99
2018-12-20T09:41:23.469Z,10.04
2018-12-20T09:42:23.349Z,10.01
2018-12-20T09:43:24.896Z,10.06
2018-12-20T09:44:23.328Z,10.10
2018-12-20T09:45:23.322Z,10.06
2018-12-20T09:46:23.314Z,9.99
2018-12-20T09:47:23.305Z,10.02
2018-12-20T09:48:23.295Z,10.02
2018-12-20T09:49:23.285Z,9.93
2018-12-20T09:50:23.270Z,10.01
2018-12-20T09:51:23.262Z,9.99
2018-12-20T09:52:23.255Z,9.99
2018-12-20T09:53:23.247Z,9.98
2018-12-20T09:54:23.232Z,9.93
2018-12-20T09:55:23.223Z,9.98
2018-12-20T09:56:23.212Z,10.02
2018-12-20T09:57:23.203Z,9.99
2018-12-20T09:58:23.198Z,9.99
2018-12-20T09:59:23.190Z,9.95
2018-12-20T10:00:23.180Z,9.92
2018-12-20T10:01:23.171Z,9.91
2018-12-20T10:02:23.159Z,9.83
2018-12-20T10:03:25.090Z,9.75
2018-12-20T10:04:23.136Z,9.75
2018-12-20T10:05:23.127Z,9.80
2018-12-20T10:06:23.121Z,9.89
2018-12-20T10:07:23.111Z,9.92
2018-12-20T10:08:23.097Z,9.83
2018-12-20T10:09:23.087Z,9.91
2018-12-20T10:10:23.093Z,9.89
2018-12-20T10:11:23.072Z,9.85
2018-12-20T10:12:23.064Z,9.88
2018-12-20T10:13:23.054Z,9.92
2018-12-20T10:14:23.039Z,9.88
2018-12-20T10:15:23.028Z,9.75
2018-12-20T10:16:23.020Z,9.78
2018-12-20T10:17:23.010Z,9.75
2018-12-20T10:18:23.005Z,9.75
2018-12-20T10:19:22.999Z,9.83
2018-12-20T10:20:22.984Z,9.85
2018-12-20T10:21:22.977Z,9.83
2018-12-20T10:22:22.961Z,9.75
2018-12-20T10:23:22.950Z,9.83
2018-12-20T10:24:22.947Z,9.71
2018-12-20T10:25:22.935Z,9.89
2018-12-20T10:26:22.922Z,9.89
2018-12-20T10:27:31.236Z,9.89
2018-12-20T10:28:22.902Z,9.92
2018-12-20T10:29:22.893Z,9.89
2018-12-20T10:30:22.886Z,9.93
2018-12-20T10:31:22.876Z,9.96
2018-12-20T10:32:22.866Z,9.96
2018-12-20T10:33:22.858Z,9.91
2018-12-20T10:34:22.843Z,9.98
2018-12-20T10:35:22.833Z,9.91
2018-12-20T10:36:22.824Z,9.95
2018-12-20T10:37:22.814Z,9.98
2018-12-20T10:38:22.808Z,9.91
2018-12-20T10:39:22.797Z,9.91
2018-12-20T10:40:22.786Z,9.93
2018-12-20T10:41:22.774Z,9.93
2018-12-20T10:42:22.769Z,9.96
2018-12-20T10:43:22.758Z,9.88
2018-12-20T10:44:22.749Z,9.95
2018-12-20T10:45:22.741Z,9.89
2018-12-20T10:46:22.726Z,9.89
2018-12-20T10:47:28.779Z,9.86
2018-12-20T10:48:22.707Z,9.77
2018-12-20T10:49:22.698Z,9.83
2018-12-20T10:50:22.691Z,9.85
2018-12-20T10:51:22.681Z,9.74
2018-12-20T10:52:22.672Z,9.74
2018-12-20T10:53:22.662Z,9.77
2018-12-20T10:54:22.648Z,9.78
2018-12-20T10:55:22.637Z,9.80
2018-12-20T10:56:22.632Z,9.80
2018-12-20T10:57:22.622Z,9.85
2018-12-20T10:58:22.610Z,9.91
2018-12-20T10:59:22.597Z,9.92
2018-12-20T11:00:22.589Z,9.95
2018-12-20T11:01:22.581Z,10.09
2018-12-20T11:02:22.574Z,10.09
2018-12-20T11:03:22.564Z,10.06
2018-12-20T11:04:22.555Z,10.13
2018-12-20T11:05:22.547Z,10.09
2018-12-20T11:06:22.530Z,10.17
2018-12-20T11:07:22.520Z,10.18
2018-12-20T11:08:22.512Z,10.18
2018-12-20T11:09:22.502Z,10.18
2018-12-20T11:10:22.497Z,10.25
2018-12-20T11:11:22.527Z,10.26
2018-12-20T11:12:22.476Z,10.17
2018-12-20T11:13:22.464Z,10.17
2018-12-20T11:14:22.458Z,10.14
2018-12-20T11:15:22.451Z,10.11
2018-12-20T11:16:22.439Z,10.17
2018-12-20T11:17:22.443Z,10.24
2018-12-20T11:18:22.416Z,10.22
2018-12-20T11:19:22.405Z,10.26
2018-12-20T11:20:22.397Z,10.25
2018-12-20T11:21:22.386Z,10.20
2018-12-20T11:22:22.382Z,10.25
2018-12-20T11:23:22.377Z,10.29
2018-12-20T11:24:22.363Z,10.26
2018-12-20T11:25:22.356Z,10.36
2018-12-20T11:26:22.341Z,10.49
2018-12-20T11:27:22.332Z,10.57
2018-12-20T11:28:22.326Z,10.63
2018-12-20T11:29:22.318Z,10.83
2018-12-20T11:30:22.302Z,10.95
2018-12-20T11:31:22.292Z,10.93
2018-12-20T11:32:22.283Z,10.87
2018-12-20T11:33:22.274Z,10.87
2018-12-20T11:34:22.270Z,10.81
2018-12-20T11:35:22.260Z,10.80
2018-12-20T11:36:22.253Z,10.72
2018-12-20T11:37:22.243Z,10.80
2018-12-20T11:38:22.229Z,10.81
2018-12-20T11:39:22.222Z,10.78
2018-12-20T11:40:22.212Z,10.66
2018-12-20T11:41:22.203Z,10.72
2018-12-20T11:42:22.199Z,10.69
2018-12-20T11:43:22.189Z,10.69
2018-12-20T11:44:22.176Z,10.66
2018-12-20T11:45:22.166Z,10.66
2018-12-20T11:46:22.162Z,10.65
2018-12-20T11:47:22.154Z,10.62
2018-12-20T11:48:22.144Z,10.63
2018-12-20T11:49:22.135Z,10.65
2018-12-20T11:50:22.123Z,10.66
2018-12-20T11:51:22.112Z,10.68
2018-12-20T11:52:22.104Z,10.70
2018-12-20T11:53:22.094Z,10.66
2018-12-20T11:54:22.092Z,10.87
2018-12-20T11:55:22.081Z,10.78
2018-12-20T11:56:22.073Z,10.80
2018-12-20T11:57:22.069Z,10.83
2018-12-20T11:58:22.056Z,10.86
2018-12-20T11:59:22.042Z,10.83
2018-12-20T12:00:22.036Z,10.86
2018-12-20T12:01:22.029Z,10.94
2018-12-20T12:02:24.529Z,10.91
2018-12-20T12:03:22.005Z,10.86
2018-12-20T12:04:21.996Z,10.83
2018-12-20T12:05:21.987Z,10.87
2018-12-20T12:06:21.984Z,10.83
2018-12-20T12:07:21.973Z,10.84
2018-12-20T12:08:21.966Z,10.81
2018-12-20T12:09:21.957Z,10.84
2018-12-20T12:10:21.943Z,10.90
2018-12-20T12:11:21.934Z,10.83
2018-12-20T12:12:21.925Z,10.93
2018-12-20T12:13:21.915Z,11.05
2018-12-20T12:14:21.911Z,11.06
2018-12-20T12:15:21.901Z,11.08
2018-12-20T12:16:21.890Z,11.06
2018-12-20T12:17:21.880Z,11.17
2018-12-20T12:18:21.890Z,11.17
2018-12-20T12:19:21.866Z,11.20
2018-12-20T12:20:21.860Z,11.24
2018-12-20T12:21:21.918Z,11.19
2018-12-20T12:22:21.836Z,11.19
2018-12-20T12:23:21.833Z,11.30
2018-12-20T12:24:21.819Z,11.28
2018-12-20T12:25:21.810Z,11.30
2018-12-20T12:26:21.809Z,11.26
2018-12-20T12:27:21.798Z,11.48
2018-12-20T12:28:21.806Z,11.48
2018-12-20T12:29:21.779Z,11.49
2018-12-20T12:30:21.767Z,11.49
2018-12-20T12:31:21.758Z,11.53
2018-12-20T12:32:21.758Z,11.48
2018-12-20T12:33:21.745Z,11.53
2018-12-20T12:34:21.733Z,11.51
2018-12-20T12:35:21.725Z,11.56
2018-12-20T12:36:21.716Z,11.49
2018-12-20T12:37:21.707Z,11.49
2018-12-20T12:38:21.705Z,11.59
2018-12-20T12:39:21.695Z,11.53
2018-12-20T12:40:21.689Z,11.59
2018-12-20T12:41:21.680Z,11.53
2018-12-20T12:42:21.667Z,11.51
2018-12-20T12:43:21.721Z,11.44
2018-12-20T12:44:21.650Z,11.45
2018-12-20T12:45:21.642Z,11.27
2018-12-20T12:46:21.638Z,11.23
2018-12-20T12:47:21.628Z,11.33
2018-12-20T12:48:21.616Z,11.26
2018-12-20T12:49:21.611Z,11.21
2018-12-20T12:50:21.616Z,11.27
2018-12-20T12:51:21.595Z,11.20
2018-12-20T12:52:21.587Z,11.16
2018-12-20T12:53:21.583Z,11.12
2018-12-20T12:54:21.569Z,11.11
2018-12-20T12:55:21.557Z,11.05
2018-12-20T12:56:21.553Z,11.06
2018-12-20T12:57:22.445Z,11.11
2018-12-20T12:58:21.538Z,11.06
2018-12-20T12:59:21.528Z,11.11
2018-12-20T13:00:21.519Z,11.05
2018-12-20T13:01:21.510Z,11.17
2018-12-20T13:02:21.498Z,11.03
2018-12-20T13:03:21.488Z,11.05
2018-12-20T13:04:21.484Z,11.08
2018-12-20T13:05:21.476Z,11.03
2018-12-20T13:06:21.464Z,11.08
2018-12-20T13:07:21.453Z,11.16
2018-12-20T13:08:21.445Z,11.02
2018-12-20T13:09:21.439Z,11.03
2018-12-20T13:10:21.435Z,11.03
2018-12-20T13:11:21.424Z,11.05
2018-12-20T13:12:21.416Z,11.02
2018-12-20T13:13:21.411Z,10.98